Time;durP1;ratioP1;P1;durP2;ratioP2;P2;SDS_P1;SDS_P2;PMS_P1;PMS_P2;Temp;Humidity;BMP_temperature;BMP_pressure;BME280_temperature;BME280_humidity;BME280_pressure;Samples;Min_cycle;Max_cycle;Signal;HPM_P1;HPM_P2
2022/07/02 00:00:50;;;;;;;;;;;;;;;;;;4997574;28;19909;-74
2022/07/02 00:03:16;;;;;;;;;;;;;;;;;;5014964;28;20344;-74
2022/07/02 00:05:44;;;;;;;;;;;;;;;;;;5015126;28;19913;-74
2022/07/02 00:08:10;;;;;;;;;;;;;;;;;;5015708;28;19939;-74
2022/07/02 00:10:36;;;;;;;;;;;;;;;;;;5019402;28;19917;-74
2022/07/02 00:13:02;;;;;;;;;;;;;;;;;;5018474;28;19980;-74
2022/07/02 00:15:28;;;;;;;;;;;;;;;;;;5018750;28;19909;-74
2022/07/02 00:17:53;;;;;;;;;;;;;;;;;;5018687;28;19909;-74
2022/07/02 00:20:19;;;;;;;;;;;;;;;;;;5018581;28;19917;-74
2022/07/02 00:22:45;;;;;;;;;;;;;;;;;;5018473;28;19909;-74
2022/07/02 00:25:11;;;;;;;;;;;;;;;;;;5018594;28;19931;-74
2022/07/02 00:27:37;;;;;;;;;;;;;;;;;;5018768;28;20395;-74
2022/07/02 00:30:03;;;;;;;;;;;;;;;;;;5018838;28;20268;-74
2022/07/02 00:32:29;;;;;;;;;;;;;;;;;;5018261;28;20260;-74
2022/07/02 00:34:55;;;;;;;;;;;;;;;;;;5018664;28;20375;-74
2022/07/02 00:37:21;;;;;;;;;;;;;;;;;;5018350;28;19909;-74
2022/07/02 00:39:47;;;;;;;;;;;;;;;;;;5018745;28;19921;-74
2022/07/02 00:42:13;;;;;;;;;;;;;;;;;;5017968;28;20390;-74
2022/07/02 00:44:39;;;;;;;;;;;;;;;;;;5017950;28;20260;-74
2022/07/02 00:47:05;;;;;;;;;;;;;;;;;;5017969;28;19917;-74
2022/07/02 00:49:31;;;;;;;;;;;;;;;;;;5018322;28;19992;-74
2022/07/02 00:51:57;;;;;;;;;;;;;;;;;;5000503;28;20374;-74
2022/07/02 00:54:23;;;;;;;;;;;;;;;;;;5017810;28;19909;-74
2022/07/02 00:56:49;;;;;;;;;;;;;;;;;;5018409;28;20364;-74
2022/07/02 00:59:15;;;;;;;;;;;;;;;;;;5018140;28;20352;-74
2022/07/02 01:01:41;;;;;;;;;;;;;;;;;;5017691;28;20387;-74
2022/07/02 01:04:06;;;;;;;;;;;;;;;;;;5017584;28;20253;-74
2022/07/02 01:06:33;;;;;;;;;;;;;;;;;;5017792;28;19913;-74
2022/07/02 01:11:43;;;;;;;;;;;;;;;;;;5017224;28;19956;-73
2022/07/02 01:14:09;;;;;;;;;;;;;;;;;;5017655;28;19913;-73
2022/07/02 01:16:35;;;;;;;;;;;;;;;;;;5017365;28;19909;-73
2022/07/02 01:19:01;;;;;;;;;;;;;;;;;;5017208;28;19923;-73
2022/07/02 01:21:27;;;;;;;;;;;;;;;;;;5017075;28;19944;-73
2022/07/02 01:23:53;;;;;;;;;;;;;;;;;;5017464;28;19949;-73
2022/07/02 01:26:19;;;;;;;;;;;;;;;;;;5017598;28;19940;-73
2022/07/02 01:28:45;;;;;;;;;;;;;;;;;;5017384;28;19956;-74
2022/07/02 01:31:11;;;;;;;;;;;;;;;;;;5016893;28;20283;-73
2022/07/02 01:33:37;;;;;;;;;;;;;;;;;;5017279;28;19914;-73
2022/07/02 01:36:03;;;;;;;;;;;;;;;;;;5017578;28;19984;-73
2022/07/02 01:38:29;;;;;;;;;;;;;;;;;;5017112;28;19917;-73
2022/07/02 01:41:38;;;;;;;;;;;;;;;;;;5017422;28;19909;-73
2022/07/02 01:43:40;;;;;;;;;;;;;;;;;;5016799;28;19952;-73
2022/07/02 01:46:06;;;;;;;;;;;;;;;;;;5017491;28;20235;-73
2022/07/02 01:48:32;;;;;;;;;;;;;;;;;;5017101;28;19917;-73
2022/07/02 01:50:58;;;;;;;;;;;;;;;;;;5016967;28;19982;-73
2022/07/02 01:53:24;;;;;;;;;;;;;;;;;;5016921;28;19909;-73
2022/07/02 01:55:51;;;;;;;;;;;;;;;;;;5016879;28;19917;-73
2022/07/02 01:58:17;;;;;;;;;;;;;;;;;;5016494;28;19921;-73
2022/07/02 02:00:43;;;;;;;;;;;;;;;;;;5016474;28;19916;-73
2022/07/02 02:03:09;;;;;;;;;;;;;;;;;;5016553;28;19913;-73
2022/07/02 02:05:35;;;;;;;;;;;;;;;;;;5017268;28;19936;-73
2022/07/02 02:08:01;;;;;;;;;;;;;;;;;;5016401;28;19910;-73
2022/07/02 02:10:27;;;;;;;;;;;;;;;;;;5017176;28;19919;-73
2022/07/02 02:12:53;;;;;;;;;;;;;;;;;;5016275;28;19916;-73
2022/07/02 02:15:18;;;;;;;;;;;;;;;;;;5016490;28;19909;-73
2022/07/02 02:17:44;;;;;;;;;;;;;;;;;;5016540;28;19996;-73
2022/07/02 02:20:10;;;;;;;;;;;;;;;;;;5016381;28;20260;-73
2022/07/02 02:22:36;;;;;;;;;;;;;;;;;;5016459;28;19916;-73
2022/07/02 02:25:02;;;;;;;;;;;;;;;;;;5016649;28;20005;-73
2022/07/02 02:27:28;;;;;;;;;;;;;;;;;;5016360;28;20354;-73
2022/07/02 02:29:54;;;;;;;;;;;;;;;;;;5016280;28;20367;-73
2022/07/02 02:32:20;;;;;;;;;;;;;;;;;;5015344;28;20263;-73
2022/07/02 02:34:46;;;;;;;;;;;;;;;;;;5015919;28;19975;-73
2022/07/02 02:37:12;;;;;;;;;;;;;;;;;;4998270;28;19909;-73
2022/07/02 02:39:38;;;;;;;;;;;;;;;;;;4998369;28;19968;-73
2022/07/02 02:42:04;;;;;;;;;;;;;;;;;;4998412;28;19955;-73
2022/07/02 02:44:30;;;;;;;;;;;;;;;;;;5015864;28;19910;-73
2022/07/02 02:46:56;;;;;;;;;;;;;;;;;;5015954;28;19924;-73
2022/07/02 02:49:22;;;;;;;;;;;;;;;;;;5016194;28;19909;-73
2022/07/02 02:51:47;;;;;;;;;;;;;;;;;;5015306;28;19913;-73
2022/07/02 02:54:13;;;;;;;;;;;;;;;;;;5015571;28;19916;-73
2022/07/02 02:56:39;;;;;;;;;;;;;;;;;;5016013;28;19910;-73
2022/07/02 02:59:05;;;;;;;;;;;;;;;;;;5015671;28;20024;-73
2022/07/02 03:01:31;;;;;;;;;;;;;;;;;;5014994;28;19913;-73
2022/07/02 03:03:58;;;;;;;;;;;;;;;;;;5015499;28;19913;-73
2022/07/02 03:06:24;;;;;;;;;;;;;;;;;;5015972;28;19983;-73
2022/07/02 03:08:50;;;;;;;;;;;;;;;;;;5015967;28;19909;-73
2022/07/02 03:11:16;;;;;;;;;;;;;;;;;;5015043;28;20389;-73
2022/07/02 03:13:42;;;;;;;;;;;;;;;;;;5015329;28;20359;-73
2022/07/02 03:16:08;;;;;;;;;;;;;;;;;;5015398;28;20340;-73
2022/07/02 03:18:34;;;;;;;;;;;;;;;;;;5015206;28;20012;-73
2022/07/02 03:21:00;;;;;;;;;;;;;;;;;;5014995;28;20001;-73
2022/07/02 03:23:26;;;;;;;;;;;;;;;;;;5015217;28;19917;-73
2022/07/02 03:25:52;;;;;;;;;;;;;;;;;;5016063;28;20430;-73
2022/07/02 03:28:18;;;;;;;;;;;;;;;;;;5014849;28;19909;-73
2022/07/02 03:30:44;;;;;;;;;;;;;;;;;;4997784;28;19945;-73
2022/07/02 03:33:10;;;;;;;;;;;;;;;;;;5014958;28;19921;-73
2022/07/02 03:35:36;;;;;;;;;;;;;;;;;;5015154;28;20336;-73
2022/07/02 03:38:03;;;;;;;;;;;;;;;;;;5014921;28;20441;-73
2022/07/02 03:40:29;;;;;;;;;;;;;;;;;;5014643;28;19953;-73
2022/07/02 03:42:54;;;;;;;;;;;;;;;;;;5015208;28;19983;-73
2022/07/02 03:45:20;;;;;;;;;;;;;;;;;;5019065;28;19910;-73
2022/07/02 03:47:46;;;;;;;;;;;;;;;;;;5018791;28;20008;-73
2022/07/02 03:50:12;;;;;;;;;;;;;;;;;;5018965;28;19956;-73
2022/07/02 03:52:39;;;;;;;;;;;;;;;;;;5018839;28;19913;-73
2022/07/02 03:55:05;;;;;;;;;;;;;;;;;;5018540;28;19913;-73
2022/07/02 03:57:31;;;;;;;;;;;;;;;;;;5019091;28;19916;-73
2022/07/02 03:59:57;;;;;;;;;;;;;;;;;;5018449;28;20399;-73
2022/07/02 04:02:23;;;;;;;;;;;;;;;;;;5018561;28;20341;-73
2022/07/02 04:04:49;;;;;;;;;;;;;;;;;;5018865;28;20344;-73
2022/07/02 04:07:15;;;;;;;;;;;;;;;;;;5018985;28;20502;-73
2022/07/02 04:09:41;;;;;;;;;;;;;;;;;;5019174;28;20248;-73
2022/07/02 04:12:07;;;;;;;;;;;;;;;;;;5018240;28;20308;-73
2022/07/02 04:14:33;;;;;;;;;;;;;;;;;;5018548;28;20331;-73
2022/07/02 04:16:58;;;;;;;;;;;;;;;;;;5018073;28;20307;-73
2022/07/02 04:19:24;;;;;;;;;;;;;;;;;;5018357;28;19944;-73
2022/07/02 04:21:50;;;;;;;;;;;;;;;;;;5018368;28;19956;-73
2022/07/02 04:24:16;;;;;;;;;;;;;;;;;;5018047;28;19913;-73
2022/07/02 04:26:42;;;;;;;;;;;;;;;;;;5001077;28;19948;-73
2022/07/02 04:29:08;;;;;;;;;;;;;;;;;;5017969;28;19910;-73
2022/07/02 04:31:34;;;;;;;;;;;;;;;;;;5018150;28;19909;-73
2022/07/02 04:34:00;;;;;;;;;;;;;;;;;;5018152;28;19916;-73
2022/07/02 04:36:26;;;;;;;;;;;;;;;;;;5017809;28;19909;-73
2022/07/02 04:38:52;;;;;;;;;;;;;;;;;;5017962;28;19917;-73
2022/07/02 04:41:18;;;;;;;;;;;;;;;;;;5018509;28;20000;-73
2022/07/02 04:43:44;;;;;;;;;;;;;;;;;;5017707;28;19910;-73
2022/07/02 04:46:10;;;;;;;;;;;;;;;;;;5017546;28;19940;-73
2022/07/02 04:48:36;;;;;;;;;;;;;;;;;;5018245;28;19993;-73
2022/07/02 04:51:02;;;;;;;;;;;;;;;;;;5018385;28;19995;-73
2022/07/02 04:53:28;;;;;;;;;;;;;;;;;;5018068;28;19967;-73
2022/07/02 04:55:54;;;;;;;;;;;;;;;;;;5016752;28;19980;-73
2022/07/02 04:58:19;;;;;;;;;;;;;;;;;;5017902;28;19915;-73
2022/07/02 05:00:45;;;;;;;;;;;;;;;;;;5017655;28;19964;-73
2022/07/02 05:03:11;;;;;;;;;;;;;;;;;;5017420;28;19964;-73
2022/07/02 05:05:37;;;;;;;;;;;;;;;;;;5000483;28;19917;-73
2022/07/02 05:08:03;;;;;;;;;;;;;;;;;;5019244;28;19944;-73
2022/07/02 05:10:29;;;;;;;;;;;;;;;;;;5035586;28;19909;-73
2022/07/02 05:12:55;;;;;;;;;;;;;;;;;;5037347;28;20348;-73
2022/07/02 05:15:21;;;;;;;;;;;;;;;;;;5037443;28;20375;-73
2022/07/02 05:17:47;;;;;;;;;;;;;;;;;;5037398;28;19913;-73
2022/07/02 05:20:13;;;;;;;;;;;;;;;;;;5035522;28;19916;-73
2022/07/02 05:22:39;;;;;;;;;;;;;;;;;;5036947;28;19912;-73
2022/07/02 05:25:05;;;;;;;;;;;;;;;;;;5037589;28;19996;-73
2022/07/02 05:27:31;;;;;;;;;;;;;;;;;;5037289;28;20004;-73
2022/07/02 05:29:57;;;;;;;;;;;;;;;;;;5036915;28;19913;-73
2022/07/02 05:32:23;;;;;;;;;;;;;;;;;;5037212;28;20072;-73
2022/07/02 05:34:49;;;;;;;;;;;;;;;;;;5019195;28;20004;-74
2022/07/02 05:37:15;;;;;;;;;;;;;;;;;;5037299;28;20003;-73
2022/07/02 05:39:41;;;;;;;;;;;;;;;;;;5037220;28;20486;-74
2022/07/02 05:42:07;;;;;;;;;;;;;;;;;;5036961;28;19913;-74
2022/07/02 05:44:33;;;;;;;;;;;;;;;;;;5019118;28;20314;-74
2022/07/02 05:46:59;;;;;;;;;;;;;;;;;;5036862;28;19917;-74
2022/07/02 05:49:25;;;;;;;;;;;;;;;;;;5037040;28;20024;-74
2022/07/02 05:51:51;;;;;;;;;;;;;;;;;;5036458;28;19909;-74
2022/07/02 05:54:17;;;;;;;;;;;;;;;;;;5036740;28;19913;-74
2022/07/02 05:56:43;;;;;;;;;;;;;;;;;;5036576;28;19995;-74
2022/07/02 05:59:09;;;;;;;;;;;;;;;;;;5036831;28;20031;-74
2022/07/02 06:01:35;;;;;;;;;;;;;;;;;;5036119;28;19984;-75
2022/07/02 06:04:01;;;;;;;;;;;;;;;;;;5036255;28;19909;-75
2022/07/02 06:09:11;;;;;;;;;;;;;;;;;;5035918;28;20279;-75
2022/07/02 06:11:39;;;;;;;;;;;;;;;;;;5035677;28;20437;-75
2022/07/02 06:14:04;;;;;;;;;;;;;;;;;;5036282;28;19909;-75
2022/07/02 06:16:31;;;;;;;;;;;;;;;;;;5035608;28;19916;-75
2022/07/02 06:18:56;;;;;;;;;;;;;;;;;;5036454;28;19913;-75
2022/07/02 06:21:23;;;;;;;;;;;;;;;;;;5034804;28;20360;-75
2022/07/02 06:23:49;;;;;;;;;;;;;;;;;;5014135;28;19909;-75
2022/07/02 06:26:15;;;;;;;;;;;;;;;;;;5019147;28;19908;-75
2022/07/02 06:28:40;;;;;;;;;;;;;;;;;;5034530;28;20004;-75
2022/07/02 06:31:06;;;;;;;;;;;;;;;;;;5035544;28;20340;-75
2022/07/02 06:33:32;;;;;;;;;;;;;;;;;;5034965;28;20328;-75
2022/07/02 06:35:58;;;;;;;;;;;;;;;;;;5035355;28;19909;-75
2022/07/02 06:38:24;;;;;;;;;;;;;;;;;;5035226;28;19909;-75
2022/07/02 06:40:51;;;;;;;;;;;;;;;;;;5014606;28;19921;-75
2022/07/02 06:43:17;;;;;;;;;;;;;;;;;;5014430;28;19909;-75
2022/07/02 06:45:43;;;;;;;;;;;;;;;;;;5026731;28;19955;-75
2022/07/02 06:48:09;;;;;;;;;;;;;;;;;;5035215;28;19921;-75
2022/07/02 06:50:35;;;;;;;;;;;;;;;;;;5017602;28;19909;-75
2022/07/02 06:53:01;;;;;;;;;;;;;;;;;;5035477;28;20238;-75
2022/07/02 06:55:27;;;;;;;;;;;;;;;;;;5035386;28;19967;-75
2022/07/02 06:57:53;;;;;;;;;;;;;;;;;;5035427;28;20272;-75
2022/07/02 07:00:23;;;;;;;;;;;;;;;;;;5035720;28;19913;-76
2022/07/02 07:02:49;;;;;;;;;;;;;;;;;;5034940;28;19913;-75
2022/07/02 07:05:15;;;;;;;;;;;;;;;;;;5035965;28;19916;-75
2022/07/02 07:07:41;;;;;;;;;;;;;;;;;;5035451;28;19998;-75
2022/07/02 07:10:07;;;;;;;;;;;;;;;;;;5035119;28;19964;-75
2022/07/02 07:12:33;;;;;;;;;;;;;;;;;;5035282;28;20379;-75
2022/07/02 07:15:03;;;;;;;;;;;;;;;;;;5035245;28;20407;-75
2022/07/02 07:17:29;;;;;;;;;;;;;;;;;;5034651;28;20240;-77
2022/07/02 07:19:55;;;;;;;;;;;;;;;;;;5034405;28;19967;-76
2022/07/02 07:22:21;;;;;;;;;;;;;;;;;;5033184;28;19917;-76
2022/07/02 07:24:47;;;;;;;;;;;;;;;;;;5033902;28;20394;-75
2022/07/02 07:27:13;;;;;;;;;;;;;;;;;;5017031;28;19909;-75
2022/07/02 07:29:39;;;;;;;;;;;;;;;;;;5035122;28;19916;-76
2022/07/02 07:32:05;;;;;;;;;;;;;;;;;;5033889;28;20379;-76
2022/07/02 07:34:31;;;;;;;;;;;;;;;;;;5034167;28;20352;-75
2022/07/02 07:36:58;;;;;;;;;;;;;;;;;;5031196;28;20271;-79
2022/07/02 07:39:24;;;;;;;;;;;;;;;;;;5018005;28;20370;-75
2022/07/02 07:41:50;;;;;;;;;;;;;;;;;;5034771;28;19917;-74
2022/07/02 07:44:17;;;;;;;;;;;;;;;;;;5033845;28;19909;-75
2022/07/02 07:46:43;;;;;;;;;;;;;;;;;;5034029;28;19999;-75
2022/07/02 07:49:11;;;;;;;;;;;;;;;;;;5034490;28;19952;-75
2022/07/02 07:51:37;;;;;;;;;;;;;;;;;;5033985;28;19916;-75
2022/07/02 07:54:03;;;;;;;;;;;;;;;;;;5016349;28;20344;-75
2022/07/02 07:56:29;;;;;;;;;;;;;;;;;;5016101;28;19909;-75
2022/07/02 07:58:55;;;;;;;;;;;;;;;;;;5016582;28;20371;-76
2022/07/02 08:01:21;;;;;;;;;;;;;;;;;;5016674;28;20244;-78
2022/07/02 08:03:48;;;;;;;;;;;;;;;;;;5034461;28;19964;-77
2022/07/02 08:06:17;;;;;;;;;;;;;;;;;;5006266;28;20359;-88
2022/07/02 08:08:42;;;;;;;;;;;;;;;;;;5014314;28;20360;-74
2022/07/02 08:11:08;;;;;;;;;;;;;;;;;;5033858;28;19909;-71
2022/07/02 08:13:35;;;;;;;;;;;;;;;;;;5032902;28;20360;-73
2022/07/02 08:16:01;;;;;;;;;;;;;;;;;;5033822;28;19909;-73
2022/07/02 08:18:26;;;;;;;;;;;;;;;;;;5033881;28;20275;-73
2022/07/02 08:20:53;;;;;;;;;;;;;;;;;;5033329;28;19913;-73
2022/07/02 08:23:19;;;;;;;;;;;;;;;;;;5015841;28;19909;-73
2022/07/02 08:25:45;;;;;;;;;;;;;;;;;;5030875;28;19916;-73
2022/07/02 08:28:11;;;;;;;;;;;;;;;;;;5014229;28;19909;-73
2022/07/02 08:30:37;;;;;;;;;;;;;;;;;;5025882;28;19920;-74
2022/07/02 08:33:03;;;;;;;;;;;;;;;;;;5031472;28;19917;-73
2022/07/02 08:35:29;;;;;;;;;;;;;;;;;;5018268;28;19944;-73
2022/07/02 08:37:55;;;;;;;;;;;;;;;;;;5027284;28;19967;-73
2022/07/02 08:40:21;;;;;;;;;;;;;;;;;;5028620;28;20383;-74
2022/07/02 08:42:47;;;;;;;;;;;;;;;;;;5031157;28;20561;-73
2022/07/02 08:45:13;;;;;;;;;;;;;;;;;;5035870;28;20331;-73
2022/07/02 08:47:39;;;;;;;;;;;;;;;;;;5036876;28;19928;-73
2022/07/02 08:50:05;;;;;;;;;;;;;;;;;;5036978;28;20371;-73
2022/07/02 08:52:31;;;;;;;;;;;;;;;;;;5037298;28;19916;-73
2022/07/02 08:54:57;;;;;;;;;;;;;;;;;;5036812;28;19909;-73
2022/07/02 08:57:23;;;;;;;;;;;;;;;;;;5036195;28;19936;-73
2022/07/02 08:59:49;;;;;;;;;;;;;;;;;;5036452;28;20004;-73
2022/07/02 09:02:15;;;;;;;;;;;;;;;;;;5037314;28;19948;-74
2022/07/02 09:04:42;;;;;;;;;;;;;;;;;;5036989;28;19915;-73
2022/07/02 09:07:08;;;;;;;;;;;;;;;;;;5018677;28;20375;-76
2022/07/02 09:09:34;;;;;;;;;;;;;;;;;;5019076;28;20326;-73
2022/07/02 09:12:00;;;;;;;;;;;;;;;;;;5019741;28;19909;-74
2022/07/02 09:14:26;;;;;;;;;;;;;;;;;;5037433;28;19913;-77
2022/07/02 09:16:52;;;;;;;;;;;;;;;;;;5036221;28;20344;-74
2022/07/02 09:19:18;;;;;;;;;;;;;;;;;;5037173;28;19913;-68
2022/07/02 09:21:44;;;;;;;;;;;;;;;;;;5037147;28;19913;-68
2022/07/02 09:24:10;;;;;;;;;;;;;;;;;;5037027;28;19909;-67
2022/07/02 09:26:36;;;;;;;;;;;;;;;;;;5037344;28;20364;-66
2022/07/02 09:29:03;;;;;;;;;;;;;;;;;;5036807;28;19999;-66
2022/07/02 09:31:29;;;;;;;;;;;;;;;;;;5037157;28;19913;-66
2022/07/02 09:33:55;;;;;;;;;;;;;;;;;;5037084;28;19916;-66
2022/07/02 09:36:21;;;;;;;;;;;;;;;;;;5037488;28;19909;-66
2022/07/02 09:38:47;;;;;;;;;;;;;;;;;;5036813;28;19924;-66
2022/07/02 09:41:13;;;;;;;;;;;;;;;;;;5036469;28;19917;-66
2022/07/02 09:43:40;;;;;;;;;;;;;;;;;;5037089;28;20004;-68
2022/07/02 09:46:06;;;;;;;;;;;;;;;;;;5036336;28;19963;-67
2022/07/02 09:48:35;;;;;;;;;;;;;;;;;;5036832;28;19917;-66
2022/07/02 09:51:01;;;;;;;;;;;;;;;;;;5025298;28;19992;-66
2022/07/02 09:53:27;;;;;;;;;;;;;;;;;;5025332;28;19955;-66
2022/07/02 09:55:53;;;;;;;;;;;;;;;;;;5026375;28;20004;-66
2022/07/02 09:58:19;;;;;;;;;;;;;;;;;;5024354;28;20403;-70
2022/07/02 10:00:47;;;;;;;;;;;;;;;;;;5025812;28;20004;-69
2022/07/02 10:03:13;;;;;;;;;;;;;;;;;;5026129;28;19913;-69
2022/07/02 10:05:39;;;;;;;;;;;;;;;;;;5024437;28;19996;-69
2022/07/02 10:08:05;;;;;;;;;;;;;;;;;;5023859;28;19916;-68
2022/07/02 10:10:40;;;;;;;;;;;;;;;;;;5033950;28;19913;-68
2022/07/02 10:13:06;;;;;;;;;;;;;;;;;;5028350;28;20411;-68
2022/07/02 10:15:32;;;;;;;;;;;;;;;;;;5034608;28;19916;-68
2022/07/02 10:18:00;;;;;;;;;;;;;;;;;;5031428;28;19909;-68
2022/07/02 10:20:26;;;;;;;;;;;;;;;;;;5034648;28;19920;-68
2022/07/02 10:22:52;;;;;;;;;;;;;;;;;;5034656;28;19967;-68
2022/07/02 10:25:18;;;;;;;;;;;;;;;;;;5020036;28;19917;-67
2022/07/02 10:27:44;;;;;;;;;;;;;;;;;;5034793;28;19999;-67
2022/07/02 10:30:10;;;;;;;;;;;;;;;;;;5034956;28;20367;-67
2022/07/02 10:32:36;;;;;;;;;;;;;;;;;;5033610;28;19909;-68
2022/07/02 10:35:02;;;;;;;;;;;;;;;;;;5033628;28;19995;-68
2022/07/02 10:37:28;;;;;;;;;;;;;;;;;;5034599;28;19920;-68
2022/07/02 10:39:54;;;;;;;;;;;;;;;;;;5033882;28;19913;-68
2022/07/02 10:42:20;;;;;;;;;;;;;;;;;;5030905;28;19913;-68
2022/07/02 10:44:47;;;;;;;;;;;;;;;;;;5031160;28;19909;-68
2022/07/02 10:47:13;;;;;;;;;;;;;;;;;;5033638;28;19917;-68
2022/07/02 10:49:39;;;;;;;;;;;;;;;;;;5034007;28;19913;-67
2022/07/02 10:52:05;;;;;;;;;;;;;;;;;;5031710;28;19999;-68
2022/07/02 10:54:31;;;;;;;;;;;;;;;;;;5033395;28;19971;-67
2022/07/02 10:56:57;;;;;;;;;;;;;;;;;;5033175;28;19917;-67
2022/07/02 10:59:23;;;;;;;;;;;;;;;;;;5033894;28;20402;-67
2022/07/02 11:01:49;;;;;;;;;;;;;;;;;;5033249;28;20027;-68
2022/07/02 11:04:15;;;;;;;;;;;;;;;;;;5033391;28;19916;-67
2022/07/02 11:06:41;;;;;;;;;;;;;;;;;;5029783;28;19909;-67
2022/07/02 11:09:07;;;;;;;;;;;;;;;;;;5024987;28;19908;-67
2022/07/02 11:11:36;;;;;;;;;;;;;;;;;;5025483;28;19984;-67
2022/07/02 11:14:02;;;;;;;;;;;;;;;;;;5032022;28;19909;-68
2022/07/02 11:16:28;;;;;;;;;;;;;;;;;;5033707;28;20394;-67
2022/07/02 11:18:54;;;;;;;;;;;;;;;;;;5032144;28;19920;-67
2022/07/02 11:21:20;;;;;;;;;;;;;;;;;;5034196;28;19920;-67
2022/07/02 11:23:46;;;;;;;;;;;;;;;;;;5034439;28;19944;-67
2022/07/02 11:26:12;;;;;;;;;;;;;;;;;;5034032;28;19964;-67
2022/07/02 11:28:38;;;;;;;;;;;;;;;;;;5033940;28;19913;-67
2022/07/02 11:31:05;;;;;;;;;;;;;;;;;;5033648;28;19999;-68
2022/07/02 11:33:31;;;;;;;;;;;;;;;;;;5034565;28;19949;-67
2022/07/02 11:35:57;;;;;;;;;;;;;;;;;;5033878;28;19913;-67
2022/07/02 11:38:23;;;;;;;;;;;;;;;;;;5033972;28;19956;-67
2022/07/02 11:40:49;;;;;;;;;;;;;;;;;;5034014;28;19912;-67
2022/07/02 11:43:14;;;;;;;;;;;;;;;;;;5033806;28;19920;-67
2022/07/02 11:45:40;;;;;;;;;;;;;;;;;;5033658;28;19957;-68
2022/07/02 11:48:06;;;;;;;;;;;;;;;;;;5012563;28;20391;-67
2022/07/02 11:50:33;;;;;;;;;;;;;;;;;;5014659;28;19916;-68
2022/07/02 11:52:59;;;;;;;;;;;;;;;;;;5013367;28;20360;-67
2022/07/02 11:55:25;;;;;;;;;;;;;;;;;;5013787;28;19909;-67
2022/07/02 11:57:51;;;;;;;;;;;;;;;;;;5011495;28;20036;-67
2022/07/02 12:00:17;;;;;;;;;;;;;;;;;;5011622;28;19920;-68
2022/07/02 12:02:43;;;;;;;;;;;;;;;;;;5013725;28;19929;-68
2022/07/02 12:05:09;;;;;;;;;;;;;;;;;;5005268;28;19955;-68
2022/07/02 12:07:35;;;;;;;;;;;;;;;;;;5017652;28;19917;-67
2022/07/02 12:10:01;;;;;;;;;;;;;;;;;;5010960;28;19963;-67
2022/07/02 12:12:27;;;;;;;;;;;;;;;;;;5015564;28;20331;-67
2022/07/02 12:14:53;;;;;;;;;;;;;;;;;;5016280;28;20153;-67
2022/07/02 12:17:19;;;;;;;;;;;;;;;;;;5017830;28;19959;-68
2022/07/02 12:19:45;;;;;;;;;;;;;;;;;;5016547;28;19913;-67
2022/07/02 12:22:11;;;;;;;;;;;;;;;;;;5016756;28;19960;-68
2022/07/02 12:24:37;;;;;;;;;;;;;;;;;;5016755;28;20322;-67
2022/07/02 12:27:03;;;;;;;;;;;;;;;;;;5026207;28;19909;-68
2022/07/02 12:32:14;;;;;;;;;;;;;;;;;;5010328;28;19916;-68
2022/07/02 12:34:40;;;;;;;;;;;;;;;;;;5001127;28;19910;-67
2022/07/02 12:37:06;;;;;;;;;;;;;;;;;;5001132;28;19910;-68
2022/07/02 12:39:31;;;;;;;;;;;;;;;;;;4997634;28;19913;-68
2022/07/02 12:41:57;;;;;;;;;;;;;;;;;;5014972;28;20391;-68
2022/07/02 12:44:23;;;;;;;;;;;;;;;;;;5010089;28;20284;-68
2022/07/02 12:46:49;;;;;;;;;;;;;;;;;;5013686;28;19923;-69
2022/07/02 12:49:15;;;;;;;;;;;;;;;;;;5030921;28;20003;-68
2022/07/02 12:51:41;;;;;;;;;;;;;;;;;;5036535;28;20012;-68
2022/07/02 12:54:07;;;;;;;;;;;;;;;;;;5037870;28;20349;-69
2022/07/02 12:56:33;;;;;;;;;;;;;;;;;;5037809;28;20348;-68
2022/07/02 12:58:59;;;;;;;;;;;;;;;;;;5029173;28;19917;-68
2022/07/02 13:01:25;;;;;;;;;;;;;;;;;;5027679;28;20004;-68
2022/07/02 13:03:51;;;;;;;;;;;;;;;;;;5036364;28;19917;-68
2022/07/02 13:06:17;;;;;;;;;;;;;;;;;;5037334;28;19909;-68
2022/07/02 13:08:43;;;;;;;;;;;;;;;;;;5034713;28;19912;-68
2022/07/02 13:11:09;;;;;;;;;;;;;;;;;;5036447;28;19960;-69
2022/07/02 13:13:35;;;;;;;;;;;;;;;;;;5037220;28;19909;-68
2022/07/02 13:16:01;;;;;;;;;;;;;;;;;;5027374;28;20004;-68
2022/07/02 13:18:27;;;;;;;;;;;;;;;;;;5017399;28;19909;-68
2022/07/02 13:20:53;;;;;;;;;;;;;;;;;;5017696;28;20383;-69
2022/07/02 13:23:19;;;;;;;;;;;;;;;;;;5025782;28;19940;-68
2022/07/02 13:25:45;;;;;;;;;;;;;;;;;;5035546;28;20323;-69
2022/07/02 13:28:11;;;;;;;;;;;;;;;;;;5033532;28;19917;-68
2022/07/02 13:30:37;;;;;;;;;;;;;;;;;;5035405;28;20024;-68
2022/07/02 13:33:03;;;;;;;;;;;;;;;;;;5036937;28;19913;-68
2022/07/02 13:35:29;;;;;;;;;;;;;;;;;;5035692;28;19955;-68
2022/07/02 13:37:55;;;;;;;;;;;;;;;;;;5036692;28;19909;-68
2022/07/02 13:40:22;;;;;;;;;;;;;;;;;;5035819;28;19920;-68
2022/07/02 13:42:49;;;;;;;;;;;;;;;;;;5021708;28;19914;-68
2022/07/02 13:45:16;;;;;;;;;;;;;;;;;;5020562;28;19913;-68
2022/07/02 13:47:44;;;;;;;;;;;;;;;;;;5040477;28;20291;-68
2022/07/02 13:50:10;;;;;;;;;;;;;;;;;;5034560;28;20359;-68
2022/07/02 13:52:36;;;;;;;;;;;;;;;;;;5034930;28;19927;-68
2022/07/02 13:55:02;;;;;;;;;;;;;;;;;;5034146;28;19915;-68
2022/07/02 13:57:28;;;;;;;;;;;;;;;;;;5035128;28;19920;-68
2022/07/02 13:59:54;;;;;;;;;;;;;;;;;;5033434;28;19921;-68
2022/07/02 14:02:20;;;;;;;;;;;;;;;;;;5014701;28;19924;-68
2022/07/02 14:04:46;;;;;;;;;;;;;;;;;;5032563;28;19909;-68
2022/07/02 14:07:12;;;;;;;;;;;;;;;;;;5033975;28;19913;-68
2022/07/02 14:09:37;;;;;;;;;;;;;;;;;;5034960;28;20331;-68
2022/07/02 14:12:04;;;;;;;;;;;;;;;;;;5035378;28;20354;-68
2022/07/02 14:14:30;;;;;;;;;;;;;;;;;;5033435;28;19996;-68
2022/07/02 14:16:57;;;;;;;;;;;;;;;;;;5033000;28;19909;-68
2022/07/02 14:19:23;;;;;;;;;;;;;;;;;;5026958;28;19914;-68
2022/07/02 14:21:48;;;;;;;;;;;;;;;;;;5027008;28;19918;-68
2022/07/02 14:24:15;;;;;;;;;;;;;;;;;;5031633;28;19913;-68
2022/07/02 14:26:40;;;;;;;;;;;;;;;;;;5033377;28;19944;-68
2022/07/02 14:29:06;;;;;;;;;;;;;;;;;;5032737;28;20415;-68
2022/07/02 14:31:32;;;;;;;;;;;;;;;;;;5031364;28;20386;-69
2022/07/02 14:33:58;;;;;;;;;;;;;;;;;;5026186;28;20283;-69
2022/07/02 14:36:24;;;;;;;;;;;;;;;;;;5033718;28;19912;-69
2022/07/02 14:38:50;;;;;;;;;;;;;;;;;;5033488;28;19948;-69
2022/07/02 14:41:32;;;;;;;;;;;;;;;;;;5030002;28;19951;-68
2022/07/02 14:43:58;;;;;;;;;;;;;;;;;;5015401;28;19992;-68
2022/07/02 14:48:52;;;;;;;;;;;;;;;;;;5031460;28;20401;-69
2022/07/02 14:51:18;;;;;;;;;;;;;;;;;;5026720;28;19913;-69
2022/07/02 14:53:44;;;;;;;;;;;;;;;;;;5026340;28;19955;-68
2022/07/02 14:56:10;;;;;;;;;;;;;;;;;;5033624;28;19920;-69
2022/07/02 14:58:36;;;;;;;;;;;;;;;;;;5031190;28;19909;-68
2022/07/02 15:01:02;;;;;;;;;;;;;;;;;;5030782;28;19917;-68
2022/07/02 15:03:28;;;;;;;;;;;;;;;;;;5021593;28;20035;-69
2022/07/02 15:05:54;;;;;;;;;;;;;;;;;;5027345;28;19916;-68
2022/07/02 15:08:20;;;;;;;;;;;;;;;;;;5023081;28;19933;-68
2022/07/02 15:10:46;;;;;;;;;;;;;;;;;;5023585;28;19909;-69
2022/07/02 15:13:12;;;;;;;;;;;;;;;;;;5030802;28;19951;-69
2022/07/02 15:18:22;;;;;;;;;;;;;;;;;;5029768;28;19962;-69
2022/07/02 15:20:48;;;;;;;;;;;;;;;;;;5031709;28;19917;-70
2022/07/02 15:23:14;;;;;;;;;;;;;;;;;;5031940;28;20294;-69
2022/07/02 15:25:40;;;;;;;;;;;;;;;;;;5043876;28;19959;-69
2022/07/02 15:28:06;;;;;;;;;;;;;;;;;;5033784;28;19909;-68
2022/07/02 15:30:33;;;;;;;;;;;;;;;;;;5032758;28;19909;-69
2022/07/02 15:32:59;;;;;;;;;;;;;;;;;;5033148;28;20003;-69
2022/07/02 15:35:25;;;;;;;;;;;;;;;;;;5030760;28;19940;-69
2022/07/02 15:37:51;;;;;;;;;;;;;;;;;;5034852;28;19964;-68
2022/07/02 15:40:17;;;;;;;;;;;;;;;;;;5037511;28;20688;-68
2022/07/02 15:42:43;;;;;;;;;;;;;;;;;;5039003;28;20256;-68
2022/07/02 15:45:09;;;;;;;;;;;;;;;;;;5039030;28;19909;-68
2022/07/02 15:47:35;;;;;;;;;;;;;;;;;;5038603;28;19917;-69
2022/07/02 15:50:01;;;;;;;;;;;;;;;;;;5038863;28;20003;-69
2022/07/02 15:52:27;;;;;;;;;;;;;;;;;;5038157;28;19952;-69
2022/07/02 15:54:53;;;;;;;;;;;;;;;;;;5038605;28;19909;-69
2022/07/02 15:57:19;;;;;;;;;;;;;;;;;;5039043;28;19909;-69
2022/07/02 15:59:45;;;;;;;;;;;;;;;;;;5038499;28;19999;-69
2022/07/02 16:02:11;;;;;;;;;;;;;;;;;;5037883;28;19913;-69
2022/07/02 16:04:37;;;;;;;;;;;;;;;;;;5038460;28;19909;-69
2022/07/02 16:07:03;;;;;;;;;;;;;;;;;;5037492;28;19909;-69
2022/07/02 16:09:29;;;;;;;;;;;;;;;;;;5038600;28;19913;-69
2022/07/02 16:11:55;;;;;;;;;;;;;;;;;;5039000;28;19916;-69
2022/07/02 16:14:21;;;;;;;;;;;;;;;;;;5038356;28;19909;-69
2022/07/02 16:16:47;;;;;;;;;;;;;;;;;;5037791;28;19996;-69
2022/07/02 16:19:12;;;;;;;;;;;;;;;;;;5038607;28;19956;-69
2022/07/02 16:21:38;;;;;;;;;;;;;;;;;;5035661;28;19921;-69
2022/07/02 16:24:04;;;;;;;;;;;;;;;;;;5035766;28;19916;-69
2022/07/02 16:26:30;;;;;;;;;;;;;;;;;;5019008;28;20002;-69
2022/07/02 16:28:56;;;;;;;;;;;;;;;;;;5038025;28;19913;-69
2022/07/02 16:31:22;;;;;;;;;;;;;;;;;;5037719;28;19915;-69
2022/07/02 16:33:48;;;;;;;;;;;;;;;;;;5037610;28;19972;-69
2022/07/02 16:36:14;;;;;;;;;;;;;;;;;;5037374;28;19916;-69
2022/07/02 16:38:40;;;;;;;;;;;;;;;;;;5036804;28;19916;-69
2022/07/02 16:41:06;;;;;;;;;;;;;;;;;;5037596;28;19917;-68
2022/07/02 16:43:32;;;;;;;;;;;;;;;;;;5033951;28;19967;-67
2022/07/02 16:45:58;;;;;;;;;;;;;;;;;;5037529;28;19913;-67
2022/07/02 16:48:24;;;;;;;;;;;;;;;;;;5036177;28;19923;-67
2022/07/02 16:50:50;;;;;;;;;;;;;;;;;;5034711;28;19909;-68